createdAt,value
2022-08-05T00:00:16.190Z,100599.44
2022-08-05T00:02:43.839Z,100597.44
2022-08-05T00:06:02.631Z,100595.81
2022-08-05T00:08:05.366Z,100588.13
2022-08-05T00:10:51.645Z,100583.34
2022-08-05T00:13:18.659Z,100588.22
2022-08-05T00:15:55.043Z,100586.94
2022-08-05T00:18:22.975Z,100589.25
2022-08-05T00:20:50.720Z,100585.44
2022-08-05T00:23:17.995Z,100600.81
2022-08-05T00:26:04.460Z,100595.94
2022-08-05T00:28:31.230Z,100610.56
2022-08-05T00:31:04.266Z,100598.03
2022-08-05T00:34:54.292Z,100592.34
2022-08-05T00:37:11.022Z,100586.53
2022-08-05T00:39:05.363Z,100584.81
2022-08-05T00:41:52.155Z,100599.13
2022-08-05T00:44:30.537Z,100590.59
2022-08-05T00:47:02.136Z,100584.75
2022-08-05T00:49:32.617Z,100601.41
2022-08-05T00:51:59.919Z,100617.75
2022-08-05T00:54:28.129Z,100638.16
2022-08-05T00:56:56.610Z,100650.03
2022-08-05T00:59:23.128Z,100632.00
2022-08-05T01:01:49.650Z,100601.34
2022-08-05T01:04:19.914Z,100639.94
2022-08-05T01:06:53.038Z,100632.91
2022-08-05T01:09:20.061Z,100633.34
2022-08-05T01:11:49.819Z,100644.69
2022-08-05T01:14:27.957Z,100644.50
2022-08-05T01:17:17.109Z,100653.97
2022-08-05T01:20:13.408Z,100639.75
2022-08-05T01:22:49.756Z,100640.66
2022-08-05T01:25:43.516Z,100642.28
2022-08-05T01:28:24.509Z,100650.13
2022-08-05T01:31:03.035Z,100641.13
2022-08-05T01:33:35.589Z,100627.97
2022-08-05T01:36:12.867Z,100629.47
2022-08-05T01:38:48.532Z,100656.00
2022-08-05T01:41:20.977Z,100658.19
2022-08-05T01:43:50.960Z,100632.66
2022-08-05T01:46:42.154Z,100650.34
2022-08-05T01:49:23.142Z,100646.72
2022-08-05T01:51:54.809Z,100624.41
2022-08-05T01:54:25.630Z,100604.00
2022-08-05T01:58:10.808Z,100617.13
2022-08-05T01:59:47.292Z,100629.25
2022-08-05T02:02:15.860Z,100626.09
2022-08-05T02:04:46.243Z,100602.91
2022-08-05T02:07:22.233Z,100616.59
2022-08-05T02:09:50.363Z,100627.56
2022-08-05T02:12:42.297Z,100633.22
2022-08-05T02:15:26.241Z,100631.41
2022-08-05T02:18:30.888Z,100621.72
2022-08-05T02:21:26.399Z,100618.75
2022-08-05T02:23:57.130Z,100616.34
2022-08-05T02:26:33.807Z,100604.00
2022-08-05T02:29:01.978Z,100616.59
2022-08-05T02:31:35.448Z,100626.66
2022-08-05T02:34:06.761Z,100637.63
2022-08-05T02:36:38.444Z,100649.31
2022-08-05T02:39:08.620Z,100646.56
2022-08-05T02:41:57.562Z,100638.34
2022-08-05T02:44:25.648Z,100633.00
2022-08-05T02:47:00.482Z,100631.56
2022-08-05T02:49:35.899Z,100633.75
2022-08-05T02:52:06.036Z,100625.88
2022-08-05T02:54:37.045Z,100610.06
2022-08-05T02:57:10.230Z,100641.13
2022-08-05T02:59:55.202Z,100626.00
2022-08-05T03:02:27.510Z,100622.59
2022-08-05T03:04:56.446Z,100633.59
2022-08-05T03:07:40.362Z,100617.50
2022-08-05T03:10:11.296Z,100616.34
2022-08-05T03:12:40.241Z,100616.00
2022-08-05T03:15:12.604Z,100574.13
2022-08-05T03:17:41.479Z,100597.09
2022-08-05T03:20:10.059Z,100597.50
2022-08-05T03:22:37.164Z,100603.97
2022-08-05T03:26:03.880Z,100593.91
2022-08-05T03:28:00.188Z,100605.38
2022-08-05T03:30:33.698Z,100584.22
2022-08-05T03:33:02.887Z,100570.31
2022-08-05T03:35:34.003Z,100577.19
2022-08-05T03:38:06.915Z,100601.00
2022-08-05T03:40:34.227Z,100585.66
2022-08-05T03:43:59.235Z,100597.47
2022-08-05T03:45:57.930Z,100601.38
2022-08-05T03:48:25.393Z,100599.34
2022-08-05T03:52:37.668Z,100614.44
2022-08-05T03:55:50.833Z,100600.53
2022-08-05T03:56:53.760Z,100605.09
2022-08-05T03:59:46.540Z,100608.31
2022-08-05T04:02:17.607Z,100611.69
2022-08-05T04:05:02.632Z,100619.38
2022-08-05T04:07:30.859Z,100620.19
2022-08-05T04:10:02.983Z,100605.84
2022-08-05T04:12:30.050Z,100612.69
2022-08-05T04:14:59.303Z,100637.16
2022-08-05T04:17:55.782Z,100627.34
2022-08-05T04:20:23.161Z,100642.91
2022-08-05T04:22:50.625Z,100646.53
2022-08-05T04:25:17.291Z,100646.50
2022-08-05T04:27:58.852Z,100639.09
2022-08-05T04:30:26.564Z,100630.28
2022-08-05T04:32:55.230Z,100641.41
2022-08-05T04:35:22.840Z,100613.16
2022-08-05T04:38:01.473Z,100620.31
2022-08-05T04:40:37.169Z,100592.53
2022-08-05T04:43:16.712Z,100612.19
2022-08-05T04:45:48.896Z,100603.00
2022-08-05T04:48:27.471Z,100598.34
2022-08-05T04:51:01.745Z,100581.97
2022-08-05T04:53:33.568Z,100596.81
2022-08-05T04:56:32.747Z,100589.75
2022-08-05T04:58:48.411Z,100608.31
2022-08-05T05:01:14.996Z,100618.41
2022-08-05T05:04:00.533Z,100624.88
2022-08-05T05:06:39.653Z,100631.28
2022-08-05T05:09:14.301Z,100631.81
2022-08-05T05:11:54.316Z,100639.56
2022-08-05T05:14:27.848Z,100624.44
2022-08-05T05:16:59.875Z,100648.28
2022-08-05T05:19:36.139Z,100642.84
2022-08-05T05:22:03.644Z,100656.44
2022-08-05T05:24:57.875Z,100663.69
2022-08-05T05:27:44.909Z,100691.28
2022-08-05T05:30:31.031Z,100713.41
2022-08-05T05:33:08.953Z,100711.50
2022-08-05T05:35:45.035Z,100696.38
2022-08-05T05:38:13.105Z,100685.03
2022-08-05T05:40:47.972Z,100712.28
2022-08-05T05:43:27.662Z,100718.22
2022-08-05T05:46:10.768Z,100699.91
2022-08-05T05:48:43.994Z,100688.59
2022-08-05T05:51:15.623Z,100726.44
2022-08-05T05:53:45.988Z,100717.47
2022-08-05T05:56:26.120Z,100755.06
2022-08-05T05:58:58.616Z,100732.06
2022-08-05T06:05:03.725Z,100752.16
2022-08-05T06:12:02.058Z,100746.72
2022-08-05T07:49:00.634Z,100782.75
2022-08-05T07:50:44.418Z,100794.06
2022-08-05T07:53:11.110Z,100798.56
2022-08-05T07:59:54.737Z,100833.81
2022-08-05T08:03:13.932Z,100795.34
2022-08-05T08:06:39.866Z,100760.47
2022-08-05T08:09:25.311Z,100764.25
2022-08-05T08:12:09.717Z,100761.25
2022-08-05T08:20:10.419Z,100793.03
2022-08-05T08:23:59.935Z,100741.88
2022-08-05T08:25:26.937Z,100776.41
2022-08-05T08:28:17.966Z,100757.28
2022-08-05T08:30:48.019Z,100776.38
2022-08-05T08:33:20.501Z,100799.72
2022-08-05T08:45:19.669Z,100820.34
2022-08-05T09:16:48.696Z,100902.53
2022-08-05T09:19:16.157Z,100893.50
2022-08-05T09:22:18.362Z,100895.50
2022-08-05T09:24:34.608Z,100882.47
2022-08-05T09:27:01.373Z,100882.88
2022-08-05T09:29:48.029Z,100876.28
2022-08-05T09:32:41.143Z,100886.22
2022-08-05T09:35:10.740Z,100882.50
2022-08-05T09:38:17.654Z,100862.19
2022-08-05T09:40:52.710Z,100866.97
2022-08-05T09:43:41.024Z,100881.75
2022-08-05T09:46:33.658Z,100869.69
2022-08-05T09:49:08.416Z,100880.81
2022-08-05T09:51:49.400Z,100839.81
2022-08-05T09:54:28.911Z,100829.38
2022-08-05T09:56:56.199Z,100822.97
2022-08-05T09:59:24.512Z,100806.13
2022-08-05T10:01:58.359Z,100792.41
2022-08-05T10:04:35.563Z,100788.81
2022-08-05T10:07:19.735Z,100798.69
2022-08-05T10:10:14.042Z,100815.75
2022-08-05T10:12:49.768Z,100794.78
2022-08-05T10:15:28.718Z,100783.00
2022-08-05T10:18:09.016Z,100818.16
2022-08-05T10:20:41.975Z,100852.84
2022-08-05T10:23:21.851Z,100857.44
2022-08-05T10:26:03.855Z,100801.22
2022-08-05T10:28:33.848Z,100821.72
2022-08-05T10:32:48.096Z,100854.41
2022-08-05T10:33:54.393Z,100876.84
2022-08-05T10:36:25.814Z,100864.91
2022-08-05T10:39:01.471Z,100878.59
2022-08-05T10:42:18.601Z,100870.03
2022-08-05T10:44:48.883Z,100867.38
2022-08-05T10:47:26.168Z,100872.88
2022-08-05T10:50:32.820Z,100879.91
2022-08-05T10:52:53.988Z,100871.41
2022-08-05T10:55:27.133Z,100848.47
2022-08-05T10:58:11.473Z,100857.34
2022-08-05T11:00:42.123Z,100844.84
2022-08-05T11:03:23.087Z,100840.97
2022-08-05T11:06:22.430Z,100853.22
2022-08-05T11:09:24.417Z,100854.22
2022-08-05T11:12:37.301Z,100855.44
2022-08-05T11:15:11.797Z,100869.25
2022-08-05T11:17:57.583Z,100858.28
2022-08-05T11:20:52.856Z,100852.81
2022-08-05T11:23:33.637Z,100853.34
2022-08-05T11:26:28.671Z,100855.06
2022-08-05T11:29:02.408Z,100860.59
2022-08-05T11:31:54.051Z,100842.25
2022-08-05T11:34:57.258Z,100873.59
2022-08-05T11:38:30.298Z,100861.69
2022-08-05T11:41:34.757Z,100867.03
2022-08-05T11:44:08.321Z,100877.19
2022-08-05T11:47:09.563Z,100874.44
2022-08-05T11:49:38.682Z,100852.06
2022-08-05T11:52:11.713Z,100865.97
2022-08-05T11:54:43.601Z,100864.72
2022-08-05T11:57:25.660Z,100872.53
2022-08-05T11:59:54.979Z,100890.91
2022-08-05T12:02:33.151Z,100875.09
2022-08-05T12:05:06.996Z,100862.38
2022-08-05T12:08:03.540Z,100871.72
2022-08-05T12:10:42.950Z,100859.38
2022-08-05T12:13:15.900Z,100874.31
2022-08-05T12:15:44.983Z,100868.03
2022-08-05T12:18:12.170Z,100865.44
2022-08-05T12:20:41.682Z,100857.03
2022-08-05T12:23:09.924Z,100851.84
2022-08-05T12:25:53.618Z,100853.56
2022-08-05T12:28:37.948Z,100858.50
2022-08-05T12:31:05.774Z,100872.94
2022-08-05T12:33:36.798Z,100866.41
2022-08-05T12:36:08.444Z,100859.38
2022-08-05T12:38:39.670Z,100854.09
2022-08-05T12:41:14.571Z,100866.16
2022-08-05T12:44:01.406Z,100860.53
2022-08-05T12:46:31.384Z,100846.09
2022-08-05T12:49:14.475Z,100865.28
2022-08-05T12:52:13.080Z,100885.44
2022-08-05T12:54:32.679Z,100876.47
2022-08-05T12:57:09.414Z,100899.94
2022-08-05T13:01:57.858Z,100884.00
2022-08-05T13:02:40.954Z,100891.16
2022-08-05T13:05:08.322Z,100883.53
2022-08-05T13:07:59.498Z,100881.22
2022-08-05T13:10:32.248Z,100858.78
2022-08-05T13:12:58.883Z,100856.13
2022-08-05T13:15:36.105Z,100856.53
2022-08-05T13:18:19.731Z,100871.22
2022-08-05T13:20:49.035Z,100875.63
2022-08-05T13:23:22.168Z,100876.72
2022-08-05T13:25:51.806Z,100879.84
2022-08-05T13:28:25.526Z,100861.94
2022-08-05T13:30:53.494Z,100899.75
2022-08-05T13:34:21.627Z,100885.63
2022-08-05T13:36:09.423Z,100895.56
2022-08-05T13:38:38.507Z,100907.81
2022-08-05T13:41:10.290Z,100875.06
2022-08-05T13:43:45.063Z,100876.09
2022-08-05T13:46:37.913Z,100884.38
2022-08-05T13:49:12.817Z,100897.25
2022-08-05T13:51:46.229Z,100883.09
2022-08-05T13:54:15.261Z,100883.94
2022-08-05T13:56:45.028Z,100872.75
2022-08-05T13:59:20.342Z,100882.81
2022-08-05T14:01:58.383Z,100888.38
2022-08-05T14:04:51.159Z,100893.47
2022-08-05T14:07:26.303Z,100884.56
2022-08-05T14:10:18.981Z,100876.22
2022-08-05T14:12:54.717Z,100875.88
2022-08-05T14:16:05.143Z,100883.34
2022-08-05T14:18:14.612Z,100884.63
2022-08-05T14:20:46.910Z,100893.72
2022-08-05T14:23:14.821Z,100896.53
2022-08-05T14:25:54.196Z,100902.16
2022-08-05T14:28:26.203Z,100889.09
2022-08-05T14:30:53.906Z,100912.03
2022-08-05T14:33:22.683Z,100902.94
2022-08-05T14:35:51.765Z,100911.22
2022-08-05T14:38:27.911Z,100916.69
2022-08-05T14:41:00.996Z,100932.75
2022-08-05T14:44:02.697Z,100928.72
2022-08-05T14:46:16.298Z,100930.41
2022-08-05T14:48:42.735Z,100946.91
2022-08-05T14:51:09.458Z,100938.78
2022-08-05T14:53:44.093Z,100931.16
2022-08-05T14:56:10.724Z,100925.38
2022-08-05T14:58:39.078Z,100936.94
2022-08-05T15:01:18.241Z,100927.81
2022-08-05T15:03:49.344Z,100912.22
2022-08-05T15:06:16.097Z,100922.78
2022-08-05T15:08:59.688Z,100916.75
2022-08-05T15:11:53.149Z,100932.97
2022-08-05T15:14:34.222Z,100932.66
2022-08-05T15:17:04.670Z,100922.59
2022-08-05T15:19:32.317Z,100932.41
2022-08-05T15:22:01.326Z,100927.03
2022-08-05T15:24:28.472Z,100934.38
2022-08-05T15:26:55.957Z,100947.72
2022-08-05T15:29:23.655Z,100947.41
2022-08-05T15:31:56.382Z,100953.16
2022-08-05T15:34:33.203Z,100968.13
2022-08-05T15:37:05.094Z,100968.50
2022-08-05T15:41:04.037Z,100941.25
2022-08-05T15:42:53.610Z,100940.66
2022-08-05T15:45:06.455Z,100958.78
2022-08-05T15:47:35.903Z,100957.22
2022-08-05T15:50:03.056Z,100957.28
2022-08-05T15:52:52.761Z,100944.41
2022-08-05T15:55:24.476Z,100936.59
2022-08-05T15:57:52.294Z,100979.88
2022-08-05T16:00:26.453Z,100975.38
2022-08-05T16:02:59.952Z,100977.16
2022-08-05T16:05:28.516Z,100981.44
2022-08-05T16:07:55.200Z,100968.88
2022-08-05T16:10:25.546Z,100964.88
2022-08-05T16:12:53.767Z,100946.63
2022-08-05T16:15:23.070Z,101004.50
2022-08-05T16:17:57.552Z,101015.22
2022-08-05T16:20:27.978Z,101000.22
2022-08-05T16:22:54.598Z,101012.47
2022-08-05T16:25:21.076Z,101034.63
2022-08-05T16:28:04.894Z,101011.94
2022-08-05T16:30:33.129Z,101048.22
2022-08-05T16:33:00.934Z,101032.09
2022-08-05T16:35:32.189Z,101041.78
2022-08-05T16:38:03.496Z,101052.28
2022-08-05T16:40:52.115Z,101022.44
2022-08-05T16:43:26.752Z,101039.75
2022-08-05T16:46:04.850Z,101038.50
2022-08-05T16:48:39.592Z,101069.22
2022-08-05T16:51:09.821Z,101103.56
2022-08-05T16:54:04.807Z,101085.88
2022-08-05T16:56:36.260Z,101077.00
2022-08-05T16:59:08.461Z,101111.97
2022-08-05T17:01:54.859Z,101091.50
2022-08-05T17:04:29.023Z,101118.00
2022-08-05T17:07:00.867Z,101098.84
2022-08-05T17:09:49.966Z,101132.09
2022-08-05T17:12:18.150Z,101129.22
2022-08-05T17:14:49.531Z,101113.56
2022-08-05T17:17:16.097Z,101122.47
2022-08-05T17:19:46.466Z,101121.75
2022-08-05T17:22:17.766Z,101126.66
2022-08-05T17:24:57.866Z,101152.41
2022-08-05T17:27:26.196Z,101145.50
2022-08-05T17:30:00.539Z,101163.53
2022-08-05T17:32:29.351Z,101188.75
2022-08-05T17:34:58.260Z,101201.06
2022-08-05T17:37:41.165Z,101186.06
2022-08-05T17:40:14.865Z,101219.00
2022-08-05T17:42:50.876Z,101216.66
2022-08-05T17:45:21.785Z,101205.84
2022-08-05T17:47:54.456Z,101188.94
2022-08-05T17:50:28.808Z,101208.56
2022-08-05T17:53:01.123Z,101205.66
2022-08-05T17:55:38.044Z,101214.34
2022-08-05T17:58:13.063Z,101204.06
2022-08-05T18:00:44.503Z,101217.19
2022-08-05T18:03:33.432Z,101210.97
2022-08-05T18:06:11.410Z,101218.44
2022-08-05T18:08:40.573Z,101203.25
2022-08-05T18:11:11.298Z,101209.75
2022-08-05T18:13:51.429Z,101229.63
2022-08-05T18:16:20.515Z,101224.75
2022-08-05T18:18:48.627Z,101233.03
2022-08-05T18:21:19.561Z,101250.88
2022-08-05T18:23:47.945Z,101253.31
2022-08-05T18:26:14.763Z,101245.84
2022-08-05T18:28:47.120Z,101247.31
2022-08-05T18:31:15.766Z,101248.75
2022-08-05T18:33:47.298Z,101248.38
2022-08-05T18:36:19.041Z,101256.50
2022-08-05T18:38:46.291Z,101246.63
2022-08-05T18:41:55.079Z,101257.16
2022-08-05T18:44:06.361Z,101249.28
2022-08-05T18:46:34.353Z,101258.19
2022-08-05T18:49:21.295Z,101267.91
2022-08-05T18:52:08.906Z,101277.38
2022-08-05T18:55:00.960Z,101285.63
2022-08-05T18:58:03.449Z,101262.56
2022-08-05T19:01:17.989Z,101244.63
2022-08-05T19:03:55.465Z,101269.75
2022-08-05T19:06:34.041Z,101303.66
2022-08-05T19:09:04.135Z,101282.97
2022-08-05T19:11:37.103Z,101318.78
2022-08-05T19:14:52.229Z,101291.69
2022-08-05T19:17:07.781Z,101297.66
2022-08-05T19:19:46.770Z,101279.41
2022-08-05T19:22:17.100Z,101302.63
2022-08-05T19:25:00.370Z,101281.69
2022-08-05T19:27:32.886Z,101284.53
2022-08-05T19:30:09.524Z,101307.94
2022-08-05T19:32:37.014Z,101283.09
2022-08-05T19:35:09.089Z,101274.94
2022-08-05T19:38:04.755Z,101282.63
2022-08-05T19:40:26.701Z,101284.72
2022-08-05T19:43:04.975Z,101296.94
2022-08-05T19:45:37.851Z,101303.09
2022-08-05T19:56:13.795Z,101320.66
2022-08-05T20:13:54.477Z,101331.56
2022-08-05T20:16:36.831Z,101331.09
2022-08-05T20:19:06.927Z,101328.94
2022-08-05T20:21:34.079Z,101343.59
2022-08-05T20:24:04.656Z,101380.25
2022-08-05T20:26:37.153Z,101373.66
2022-08-05T20:29:04.692Z,101341.19
2022-08-05T20:31:42.785Z,101369.22
2022-08-05T20:34:24.424Z,101398.53
2022-08-05T20:36:51.043Z,101368.91
2022-08-05T20:39:20.360Z,101397.41
2022-08-05T20:41:48.275Z,101406.50
2022-08-05T20:44:29.202Z,101431.84
2022-08-05T20:46:59.432Z,101427.50
2022-08-05T20:49:26.457Z,101409.66
2022-08-05T20:51:54.946Z,101457.78
2022-08-05T20:54:24.749Z,101453.47
2022-08-05T20:56:52.502Z,101465.44
2022-08-05T20:59:27.174Z,101446.47
2022-08-05T21:02:06.272Z,101481.06
2022-08-05T21:04:33.453Z,101460.41
2022-08-05T21:07:00.169Z,101463.84
2022-08-05T21:09:27.106Z,101457.69
2022-08-05T21:12:10.587Z,101466.88
2022-08-05T21:14:38.432Z,101434.88
2022-08-05T21:17:05.875Z,101488.28
2022-08-05T21:19:47.331Z,101441.28
2022-08-05T21:22:21.649Z,101476.78
2022-08-05T21:24:51.814Z,101491.75
2022-08-05T21:27:20.682Z,101473.41
2022-08-05T21:29:58.806Z,101464.75
2022-08-05T21:32:29.325Z,101484.34
2022-08-05T21:35:08.760Z,101499.06
2022-08-05T21:37:46.991Z,101480.72
2022-08-05T21:40:14.371Z,101494.16
2022-08-05T21:44:04.931Z,101445.69
2022-08-05T21:46:58.881Z,101444.44
2022-08-05T21:49:48.599Z,101454.66
2022-08-05T21:52:22.403Z,101461.47
2022-08-05T21:54:57.359Z,101453.44
2022-08-05T21:57:35.619Z,101497.59
2022-08-05T22:00:06.116Z,101508.91
2022-08-05T22:02:34.420Z,101497.84
2022-08-05T22:05:01.052Z,101493.47
2022-08-05T22:07:39.909Z,101495.97
2022-08-05T22:10:16.816Z,101490.69
2022-08-05T22:12:50.872Z,101470.41
2022-08-05T22:16:02.533Z,101509.94
2022-08-05T22:18:06.266Z,101516.66
2022-08-05T22:20:35.647Z,101515.13
2022-08-05T22:23:24.425Z,101510.88
2022-08-05T22:26:11.849Z,101514.25
2022-08-05T22:28:41.806Z,101518.16
2022-08-05T22:31:08.475Z,101503.69
2022-08-05T22:33:57.797Z,101545.13
2022-08-05T22:36:24.968Z,101488.03
2022-08-05T22:38:52.170Z,101496.97
2022-08-05T22:41:26.436Z,101531.59
2022-08-05T22:44:08.460Z,101509.63
2022-08-05T22:46:40.123Z,101491.94
2022-08-05T22:49:23.530Z,101538.41
2022-08-05T22:52:04.446Z,101534.63
2022-08-05T22:54:33.541Z,101554.09
2022-08-05T22:56:59.950Z,101562.47
2022-08-05T22:59:46.266Z,101539.78
2022-08-05T23:02:16.793Z,101555.75
2022-08-05T23:04:43.973Z,101548.63
2022-08-05T23:07:19.313Z,101520.72
2022-08-05T23:09:58.159Z,101539.75
2022-08-05T23:12:32.355Z,101566.91
2022-08-05T23:15:03.945Z,101542.16
2022-08-05T23:17:59.616Z,101546.66
2022-08-05T23:20:23.436Z,101544.16
2022-08-05T23:22:50.958Z,101565.84
2022-08-05T23:25:53.470Z,101574.78
2022-08-05T23:28:09.297Z,101554.41
2022-08-05T23:30:39.573Z,101566.16
2022-08-05T23:33:07.300Z,101586.13
2022-08-05T23:35:45.480Z,101557.75
2022-08-05T23:38:12.248Z,101567.66
2022-08-05T23:40:40.908Z,101566.94
2022-08-05T23:43:24.227Z,101566.94
2022-08-05T23:45:52.375Z,101566.09
2022-08-05T23:48:19.640Z,101589.19
2022-08-05T23:50:46.247Z,101587.16
2022-08-05T23:53:22.822Z,101580.31
2022-08-05T23:55:49.750Z,101580.34
2022-08-05T23:58:31.935Z,101581.44
